Time;durP1;ratioP1;P1;durP2;ratioP2;P2;SDS_P1;SDS_P2;PMS_P1;PMS_P2;Temp;Humidity;BMP_temperature;BMP_pressure;BME280_temperature;BME280_humidity;BME280_pressure;Samples;Min_cycle;Max_cycle;Signal;HPM_P1;HPM_P2
2022/03/13 00:00:49;;;;;;;9.07;6.85;;;;;;;;;;5048523;28;20478;-77
2022/03/13 00:03:16;;;;;;;11.07;8.10;;;;;;;;;;5050283;28;20051;-76
2022/03/13 00:05:45;;;;;;;8.10;7.13;;;;;;;;;;5049840;28;20025;-76
2022/03/13 00:08:18;;;;;;;9.15;6.80;;;;;;;;;;5050332;28;20036;-76
2022/03/13 00:10:48;;;;;;;6.95;5.75;;;;;;;;;;5051508;28;20063;-77
2022/03/13 00:13:17;;;;;;;7.45;6.20;;;;;;;;;;5052902;28;20117;-76
2022/03/13 00:15:44;;;;;;;7.60;6.13;;;;;;;;;;5052753;28;20017;-76
2022/03/13 00:18:12;;;;;;;7.25;6.10;;;;;;;;;;5051552;28;20032;-75
2022/03/13 00:20:39;;;;;;;7.05;6.05;;;;;;;;;;5053039;28;20052;-76
2022/03/13 00:23:06;;;;;;;9.10;7.55;;;;;;;;;;5052798;28;20583;-77
2022/03/13 00:25:32;;;;;;;11.38;8.00;;;;;;;;;;5051281;28;20029;-76
2022/03/13 00:27:58;;;;;;;10.35;7.03;;;;;;;;;;5052569;28;20025;-75
2022/03/13 00:30:24;;;;;;;9.07;6.68;;;;;;;;;;5053012;28;20099;-76
2022/03/13 00:32:50;;;;;;;7.65;6.35;;;;;;;;;;5052467;28;20025;-76
2022/03/13 00:35:16;;;;;;;6.85;5.93;;;;;;;;;;5051261;28;20053;-76
2022/03/13 00:37:43;;;;;;;6.63;5.90;;;;;;;;;;5051218;28;20029;-78
2022/03/13 00:40:12;;;;;;;7.03;6.03;;;;;;;;;;5052906;28;20029;-75
2022/03/13 00:42:38;;;;;;;9.93;7.25;;;;;;;;;;5052610;28;20025;-76
2022/03/13 00:45:04;;;;;;;9.23;7.63;;;;;;;;;;5052412;28;20021;-75
2022/03/13 00:47:31;;;;;;;11.88;9.02;;;;;;;;;;5050728;28;20024;-75
2022/03/13 00:49:57;;;;;;;12.40;8.50;;;;;;;;;;5052738;28;20074;-76
2022/03/13 00:52:23;;;;;;;9.40;7.72;;;;;;;;;;5051909;28;20017;-75
2022/03/13 00:54:50;;;;;;;10.05;7.60;;;;;;;;;;5052126;28;20021;-75
2022/03/13 00:57:17;;;;;;;8.13;6.95;;;;;;;;;;5052155;28;20163;-75
2022/03/13 00:59:44;;;;;;;7.47;6.38;;;;;;;;;;5050811;28;20024;-76
2022/03/13 01:02:10;;;;;;;9.52;6.55;;;;;;;;;;5050375;28;20031;-76
2022/03/13 01:04:37;;;;;;;6.15;4.95;;;;;;;;;;5049024;28;20021;-76
2022/03/13 01:07:03;;;;;;;7.65;4.70;;;;;;;;;;5049518;28;20025;-76
2022/03/13 01:09:29;;;;;;;5.55;4.53;;;;;;;;;;5051826;28;20037;-76
2022/03/13 01:11:56;;;;;;;4.93;3.85;;;;;;;;;;5051753;28;20074;-75
2022/03/13 01:14:23;;;;;;;4.07;3.67;;;;;;;;;;5050209;28;20060;-76
2022/03/13 01:16:58;;;;;;;6.15;4.03;;;;;;;;;;5051510;28;20029;-75
2022/03/13 01:19:24;;;;;;;5.03;4.00;;;;;;;;;;5052162;28;20028;-76
2022/03/13 01:21:50;;;;;;;4.88;3.90;;;;;;;;;;5051374;28;20477;-75
2022/03/13 01:24:17;;;;;;;4.68;4.03;;;;;;;;;;5051546;28;20032;-75
2022/03/13 01:26:43;;;;;;;5.13;4.43;;;;;;;;;;5051611;28;20029;-75
2022/03/13 01:29:14;;;;;;;4.88;3.83;;;;;;;;;;5049908;28;20045;-75
2022/03/13 01:31:44;;;;;;;4.55;3.97;;;;;;;;;;5051346;28;20025;-77
2022/03/13 01:34:12;;;;;;;4.10;3.70;;;;;;;;;;5051388;28;20029;-78
2022/03/13 01:36:38;;;;;;;3.72;3.33;;;;;;;;;;5051379;28;20017;-76
2022/03/13 01:39:09;;;;;;;4.38;3.65;;;;;;;;;;5049919;28;20648;-75
2022/03/13 01:41:35;;;;;;;4.93;3.45;;;;;;;;;;5051304;28;20089;-76
2022/03/13 01:44:02;;;;;;;3.75;3.22;;;;;;;;;;5051143;28;20024;-75
2022/03/13 01:46:28;;;;;;;4.22;3.83;;;;;;;;;;5049653;28;20032;-75
2022/03/13 01:49:02;;;;;;;4.03;3.35;;;;;;;;;;5050917;28;20044;-77
2022/03/13 01:51:30;;;;;;;3.70;2.92;;;;;;;;;;5050758;28;20100;-75
2022/03/13 01:53:58;;;;;;;3.60;3.00;;;;;;;;;;5051050;28;20558;-76
2022/03/13 01:56:24;;;;;;;4.00;3.40;;;;;;;;;;5051131;28;20031;-78
2022/03/13 01:58:52;;;;;;;5.05;3.22;;;;;;;;;;5050862;28;20409;-75
2022/03/13 02:01:19;;;;;;;3.80;3.40;;;;;;;;;;5048122;28;20112;-77
2022/03/13 02:03:46;;;;;;;4.07;3.30;;;;;;;;;;5050858;28;20035;-77
2022/03/13 02:06:12;;;;;;;4.32;3.50;;;;;;;;;;5050721;28;20032;-76
2022/03/13 02:08:38;;;;;;;3.60;2.97;;;;;;;;;;5050403;28;20033;-74
2022/03/13 02:11:06;;;;;;;3.97;3.22;;;;;;;;;;5050427;28;20055;-75
2022/03/13 02:13:33;;;;;;;4.10;3.33;;;;;;;;;;5048654;28;20119;-78
2022/03/13 02:15:59;;;;;;;4.13;3.42;;;;;;;;;;5049304;28;20473;-76
2022/03/13 02:18:25;;;;;;;6.50;3.30;;;;;;;;;;5050383;28;20029;-76
2022/03/13 02:20:51;;;;;;;3.88;3.35;;;;;;;;;;5050336;28;20466;-75
2022/03/13 02:23:25;;;;;;;3.65;3.20;;;;;;;;;;5048865;28;20611;-75
2022/03/13 02:25:52;;;;;;;4.07;3.05;;;;;;;;;;5047675;28;20035;-76
2022/03/13 02:28:19;;;;;;;3.60;3.17;;;;;;;;;;5046793;28;20385;-75
2022/03/13 02:30:46;;;;;;;3.10;2.80;;;;;;;;;;5045643;28;20025;-78
2022/03/13 02:33:12;;;;;;;3.53;3.05;;;;;;;;;;5045704;28;20497;-77
2022/03/13 02:35:39;;;;;;;4.43;3.30;;;;;;;;;;5049411;28;20033;-75
2022/03/13 02:38:06;;;;;;;3.53;2.83;;;;;;;;;;5033156;28;20354;-76
2022/03/13 02:40:32;;;;;;;3.05;2.67;;;;;;;;;;5030374;28;20029;-77
2022/03/13 02:42:58;;;;;;;3.20;2.63;;;;;;;;;;5030308;28;20499;-76
2022/03/13 02:45:27;;;;;;;2.70;2.35;;;;;;;;;;5030166;28;20199;-75
2022/03/13 02:47:54;;;;;;;3.25;2.80;;;;;;;;;;5030257;28;20022;-75
2022/03/13 02:50:20;;;;;;;4.35;2.88;;;;;;;;;;5028584;28;20132;-75
2022/03/13 02:52:46;;;;;;;3.10;2.80;;;;;;;;;;5030179;28;20022;-77
2022/03/13 02:55:12;;;;;;;4.45;3.05;;;;;;;;;;5030533;28;20037;-77
2022/03/13 02:57:39;;;;;;;4.00;3.17;;;;;;;;;;5029969;28;20021;-76
2022/03/13 03:00:06;;;;;;;2.95;2.65;;;;;;;;;;5028709;28;20064;-77
2022/03/13 03:02:32;;;;;;;4.28;3.05;;;;;;;;;;5030200;28;20039;-76
2022/03/13 03:04:58;;;;;;;4.03;2.90;;;;;;;;;;5030180;28;20041;-75
2022/03/13 03:07:24;;;;;;;4.32;2.95;;;;;;;;;;5028743;28;20026;-75
2022/03/13 03:09:50;;;;;;;3.78;2.78;;;;;;;;;;5030158;28;20397;-75
2022/03/13 03:12:17;;;;;;;2.90;2.50;;;;;;;;;;5029888;28;20048;-76
2022/03/13 03:14:43;;;;;;;4.00;2.85;;;;;;;;;;5029016;28;20029;-75
2022/03/13 03:17:09;;;;;;;3.33;2.83;;;;;;;;;;5030136;28;20367;-76
2022/03/13 03:19:36;;;;;;;3.72;2.90;;;;;;;;;;5030167;28;20488;-77
2022/03/13 03:22:02;;;;;;;3.75;2.60;;;;;;;;;;5028565;28;20029;-75
2022/03/13 03:24:28;;;;;;;3.00;2.60;;;;;;;;;;5029920;28;20022;-75
2022/03/13 03:26:55;;;;;;;3.03;2.35;;;;;;;;;;5034062;28;20040;-76
2022/03/13 03:29:21;;;;;;;3.00;2.67;;;;;;;;;;5034050;28;20034;-75
2022/03/13 03:31:49;;;;;;;3.15;2.78;;;;;;;;;;5046332;28;20032;-75
2022/03/13 03:34:17;;;;;;;3.58;2.70;;;;;;;;;;5047733;28;20303;-75
2022/03/13 03:36:44;;;;;;;3.83;3.05;;;;;;;;;;5050539;28;20087;-75
2022/03/13 03:39:11;;;;;;;3.72;2.88;;;;;;;;;;5050287;28;20025;-75
2022/03/13 03:41:37;;;;;;;3.33;3.03;;;;;;;;;;5050333;28;20024;-75
2022/03/13 03:44:03;;;;;;;4.32;2.80;;;;;;;;;;5050163;28;20025;-75
2022/03/13 03:46:29;;;;;;;4.03;2.70;;;;;;;;;;5050069;28;20041;-76
2022/03/13 03:48:56;;;;;;;4.03;2.78;;;;;;;;;;5049938;28;20120;-75
2022/03/13 03:51:22;;;;;;;3.58;2.72;;;;;;;;;;5050377;28;20047;-75
2022/03/13 03:53:48;;;;;;;4.07;2.90;;;;;;;;;;5049982;28;20028;-75
2022/03/13 03:56:14;;;;;;;3.58;2.67;;;;;;;;;;5049809;28;20017;-76
2022/03/13 03:58:40;;;;;;;3.38;2.80;;;;;;;;;;5050487;28;20371;-76
2022/03/13 04:01:06;;;;;;;3.00;2.70;;;;;;;;;;5048089;28;20028;-75
2022/03/13 04:03:32;;;;;;;4.78;2.70;;;;;;;;;;5031773;28;20033;-75
2022/03/13 04:05:59;;;;;;;3.17;2.88;;;;;;;;;;5027263;28;20018;-75
2022/03/13 04:08:25;;;;;;;3.30;2.65;;;;;;;;;;5025275;28;20609;-76
2022/03/13 04:10:51;;;;;;;4.07;2.78;;;;;;;;;;5028278;28;20025;-75
2022/03/13 04:13:18;;;;;;;3.83;2.67;;;;;;;;;;5027361;28;20053;-75
2022/03/13 04:15:44;;;;;;;3.85;2.67;;;;;;;;;;5027242;28;20104;-75
2022/03/13 04:18:10;;;;;;;5.63;3.00;;;;;;;;;;5026813;28;20038;-75
2022/03/13 04:20:36;;;;;;;3.15;2.60;;;;;;;;;;5025264;28;20470;-75
2022/03/13 04:23:03;;;;;;;3.03;2.65;;;;;;;;;;5027971;28;20462;-75
2022/03/13 04:25:29;;;;;;;3.53;2.40;;;;;;;;;;5029892;28;20026;-75
2022/03/13 04:27:58;;;;;;;3.60;2.83;;;;;;;;;;5029991;28;20044;-75
2022/03/13 04:30:29;;;;;;;3.00;2.70;;;;;;;;;;5028619;28;20029;-75
2022/03/13 04:32:56;;;;;;;4.03;3.10;;;;;;;;;;5029991;28;20474;-75
2022/03/13 04:35:22;;;;;;;2.80;2.50;;;;;;;;;;5029813;28;20063;-75
2022/03/13 04:37:49;;;;;;;3.63;2.60;;;;;;;;;;5029672;28;20026;-75
2022/03/13 04:40:15;;;;;;;3.85;2.83;;;;;;;;;;5030104;28;20022;-76
2022/03/13 04:42:41;;;;;;;3.03;2.58;;;;;;;;;;5028069;28;20045;-75
2022/03/13 04:45:07;;;;;;;2.70;2.30;;;;;;;;;;5029887;28;20026;-76
2022/03/13 04:47:34;;;;;;;4.10;2.30;;;;;;;;;;5029600;28;20025;-75
2022/03/13 04:50:00;;;;;;;3.05;2.50;;;;;;;;;;5029680;28;20036;-75
2022/03/13 04:52:27;;;;;;;2.70;2.08;;;;;;;;;;5027689;28;20072;-75
2022/03/13 04:54:53;;;;;;;2.40;2.13;;;;;;;;;;5029522;28;20112;-75
2022/03/13 04:57:20;;;;;;;3.10;2.20;;;;;;;;;;5029757;28;20029;-75
2022/03/13 04:59:46;;;;;;;2.45;2.20;;;;;;;;;;5029343;28;20095;-75
2022/03/13 05:02:12;;;;;;;2.53;2.28;;;;;;;;;;5027604;28;20485;-75
2022/03/13 05:04:38;;;;;;;3.30;2.20;;;;;;;;;;5026526;28;20192;-75
2022/03/13 05:07:08;;;;;;;4.85;2.55;;;;;;;;;;5026323;28;20020;-75
2022/03/13 05:09:35;;;;;;;5.10;2.35;;;;;;;;;;5028261;28;20128;-75
2022/03/13 05:12:04;;;;;;;3.85;2.50;;;;;;;;;;5028753;28;20498;-75
2022/03/13 05:14:31;;;;;;;3.25;2.00;;;;;;;;;;5042646;28;20087;-75
2022/03/13 05:16:58;;;;;;;2.55;2.22;;;;;;;;;;5028684;28;20393;-75
2022/03/13 05:19:24;;;;;;;3.08;2.28;;;;;;;;;;5029064;28;20049;-75
2022/03/13 05:21:50;;;;;;;2.55;2.10;;;;;;;;;;5028929;28;20037;-76
2022/03/13 05:24:16;;;;;;;2.60;2.30;;;;;;;;;;5028888;28;20066;-75
2022/03/13 05:26:44;;;;;;;3.17;2.30;;;;;;;;;;5042357;28;20036;-75
2022/03/13 05:29:11;;;;;;;3.30;2.28;;;;;;;;;;5028731;28;20044;-75
2022/03/13 05:31:37;;;;;;;2.28;1.80;;;;;;;;;;5028800;28;20412;-75
2022/03/13 05:34:04;;;;;;;3.17;2.50;;;;;;;;;;5029067;28;20108;-75
2022/03/13 05:36:30;;;;;;;2.75;2.35;;;;;;;;;;5028695;28;20033;-75
2022/03/13 05:38:56;;;;;;;2.65;2.28;;;;;;;;;;5027204;28;20025;-74
2022/03/13 05:41:22;;;;;;;2.63;2.13;;;;;;;;;;5028438;28;20053;-75
2022/03/13 05:43:49;;;;;;;3.03;2.40;;;;;;;;;;5028936;28;20021;-74
2022/03/13 05:46:16;;;;;;;2.55;2.25;;;;;;;;;;5027961;28;20149;-74
2022/03/13 05:48:42;;;;;;;3.08;2.20;;;;;;;;;;5026911;28;20033;-75
2022/03/13 05:51:08;;;;;;;2.45;2.17;;;;;;;;;;5028747;28;20060;-75
2022/03/13 05:53:34;;;;;;;2.03;1.80;;;;;;;;;;5025277;28;20173;-75
2022/03/13 05:56:01;;;;;;;2.78;2.13;;;;;;;;;;5025411;28;20036;-75
2022/03/13 05:58:27;;;;;;;2.20;1.83;;;;;;;;;;5025311;28;20026;-75
2022/03/13 06:01:05;;;;;;;2.28;1.80;;;;;;;;;;5024985;28;20382;-77
2022/03/13 06:03:32;;;;;;;2.20;1.85;;;;;;;;;;5023015;28;20037;-76
2022/03/13 06:06:01;;;;;;;2.30;1.90;;;;;;;;;;5025033;28;20378;-75
2022/03/13 06:08:27;;;;;;;3.80;2.20;;;;;;;;;;5025216;28;20044;-75
2022/03/13 06:10:53;;;;;;;2.30;2.10;;;;;;;;;;5025044;28;20032;-75
2022/03/13 06:13:21;;;;;;;2.38;2.10;;;;;;;;;;5025001;28;20395;-75
2022/03/13 06:15:47;;;;;;;2.78;2.28;;;;;;;;;;5025147;28;20056;-75
2022/03/13 06:18:13;;;;;;;5.22;2.67;;;;;;;;;;5022831;28;20483;-75
2022/03/13 06:20:39;;;;;;;2.95;2.45;;;;;;;;;;5024950;28;20093;-75
2022/03/13 06:23:05;;;;;;;2.63;2.30;;;;;;;;;;5024904;28;20105;-75
2022/03/13 06:25:31;;;;;;;2.55;2.22;;;;;;;;;;5024829;28;20444;-76
2022/03/13 06:27:57;;;;;;;3.47;2.03;;;;;;;;;;5023201;28;20021;-75
2022/03/13 06:30:25;;;;;;;2.60;2.20;;;;;;;;;;5024807;28;20059;-75
2022/03/13 06:32:52;;;;;;;4.15;2.25;;;;;;;;;;5024731;28;20022;-75
2022/03/13 06:35:19;;;;;;;2.72;2.35;;;;;;;;;;5024904;28;20535;-75
2022/03/13 06:37:46;;;;;;;2.97;2.40;;;;;;;;;;5022894;28;20021;-75
2022/03/13 06:40:16;;;;;;;2.63;2.33;;;;;;;;;;5024208;28;20078;-75
2022/03/13 06:42:42;;;;;;;2.65;2.15;;;;;;;;;;5024379;28;20410;-75
2022/03/13 06:45:10;;;;;;;2.60;2.33;;;;;;;;;;5023118;28;20033;-75
2022/03/13 06:47:36;;;;;;;4.07;2.05;;;;;;;;;;5024358;28;20036;-76
2022/03/13 06:50:03;;;;;;;2.83;2.20;;;;;;;;;;5024161;28;20041;-75
2022/03/13 06:52:29;;;;;;;2.88;2.38;;;;;;;;;;5022538;28;20022;-75
2022/03/13 06:54:55;;;;;;;2.45;2.25;;;;;;;;;;5025008;28;20087;-74
2022/03/13 06:57:21;;;;;;;2.78;2.58;;;;;;;;;;5039228;28;20030;-75
2022/03/13 06:59:47;;;;;;;4.03;2.70;;;;;;;;;;5028131;28;20026;-76
2022/03/13 07:02:14;;;;;;;5.00;3.30;;;;;;;;;;5029143;28;20104;-75
2022/03/13 07:04:40;;;;;;;3.72;3.05;;;;;;;;;;5030670;28;20027;-75
2022/03/13 07:07:07;;;;;;;5.03;3.58;;;;;;;;;;5030747;28;20025;-76
2022/03/13 07:09:33;;;;;;;5.10;3.03;;;;;;;;;;5031227;28;20390;-75
2022/03/13 07:11:59;;;;;;;5.80;3.60;;;;;;;;;;5029463;28;20203;-75
2022/03/13 07:14:25;;;;;;;4.43;3.70;;;;;;;;;;5046298;28;20096;-75
2022/03/13 07:16:52;;;;;;;7.15;3.72;;;;;;;;;;5030965;28;20067;-75
2022/03/13 07:19:18;;;;;;;5.85;3.95;;;;;;;;;;5045611;28;20029;-75
2022/03/13 07:21:45;;;;;;;4.32;3.90;;;;;;;;;;5030848;28;20096;-76
2022/03/13 07:24:11;;;;;;;4.30;3.85;;;;;;;;;;5031414;28;20070;-75
2022/03/13 07:26:37;;;;;;;5.85;3.45;;;;;;;;;;5029374;28;20032;-75
2022/03/13 07:29:04;;;;;;;11.70;4.68;;;;;;;;;;5045555;28;20045;-75
2022/03/13 07:31:30;;;;;;;6.25;3.10;;;;;;;;;;5045675;28;20436;-76
2022/03/13 07:33:57;;;;;;;3.28;2.85;;;;;;;;;;5031045;28;20032;-75
2022/03/13 07:36:23;;;;;;;4.25;3.10;;;;;;;;;;5029026;28;20160;-75
2022/03/13 07:38:49;;;;;;;4.97;3.30;;;;;;;;;;5045651;28;20136;-75
2022/03/13 07:41:16;;;;;;;5.18;3.75;;;;;;;;;;5030459;28;20057;-75
2022/03/13 07:43:42;;;;;;;10.63;4.93;;;;;;;;;;5030221;28;20112;-75
2022/03/13 07:46:08;;;;;;;7.68;4.47;;;;;;;;;;5030711;28;20105;-75
2022/03/13 07:48:35;;;;;;;6.70;4.22;;;;;;;;;;5030303;28;20120;-76
2022/03/13 07:51:04;;;;;;;6.15;3.50;;;;;;;;;;5044084;28;20021;-75
2022/03/13 07:53:31;;;;;;;4.07;2.65;;;;;;;;;;5030085;28;20029;-75
2022/03/13 07:55:57;;;;;;;3.83;2.50;;;;;;;;;;5030351;28;20393;-75
2022/03/13 07:58:24;;;;;;;4.13;3.25;;;;;;;;;;5030558;28;20034;-75
2022/03/13 08:00:50;;;;;;;7.03;4.75;;;;;;;;;;5028636;28;20017;-75
2022/03/13 08:03:30;;;;;;;9.00;5.18;;;;;;;;;;5030820;28;20037;-75
2022/03/13 08:05:56;;;;;;;8.52;4.88;;;;;;;;;;5030028;28;20355;-75
2022/03/13 08:08:22;;;;;;;6.70;4.75;;;;;;;;;;5030283;28;20040;-75
2022/03/13 08:10:48;;;;;;;6.38;4.32;;;;;;;;;;5028452;28;20582;-75
2022/03/13 08:13:14;;;;;;;4.32;3.50;;;;;;;;;;5025691;28;20622;-75
2022/03/13 08:15:41;;;;;;;7.78;3.88;;;;;;;;;;5027419;28;20036;-76
2022/03/13 08:18:09;;;;;;;6.35;4.10;;;;;;;;;;5042132;28;20384;-75
2022/03/13 08:20:35;;;;;;;5.30;4.20;;;;;;;;;;5026987;28;20028;-77
2022/03/13 08:23:01;;;;;;;6.82;4.80;;;;;;;;;;5040632;28;20029;-75
2022/03/13 08:25:28;;;;;;;6.95;4.47;;;;;;;;;;5027285;28;20021;-75
2022/03/13 08:27:55;;;;;;;5.53;3.95;;;;;;;;;;5026881;28;20038;-75
2022/03/13 08:30:21;;;;;;;4.70;3.40;;;;;;;;;;5026840;28;20029;-77
2022/03/13 08:32:47;;;;;;;4.25;3.35;;;;;;;;;;5040338;28;20366;-77
2022/03/13 08:35:13;;;;;;;3.58;3.10;;;;;;;;;;5029347;28;20031;-78
2022/03/13 08:37:39;;;;;;;3.20;2.85;;;;;;;;;;5044157;28;20025;-75
2022/03/13 08:40:06;;;;;;;3.47;3.00;;;;;;;;;;5046614;28;20017;-76
2022/03/13 08:42:32;;;;;;;4.18;3.28;;;;;;;;;;5045048;28;20104;-75
2022/03/13 08:44:59;;;;;;;4.18;3.13;;;;;;;;;;5043569;28;20029;-75
2022/03/13 08:47:26;;;;;;;4.20;3.30;;;;;;;;;;5031138;28;20469;-76
2022/03/13 08:49:52;;;;;;;3.67;3.25;;;;;;;;;;5026857;28;20478;-77
2022/03/13 08:52:19;;;;;;;4.40;3.50;;;;;;;;;;5026900;28;20057;-77
2022/03/13 08:54:46;;;;;;;4.28;3.88;;;;;;;;;;5024697;28;20026;-76
2022/03/13 08:57:12;;;;;;;4.20;3.80;;;;;;;;;;5026336;28;20729;-76
2022/03/13 08:59:38;;;;;;;4.47;3.92;;;;;;;;;;5025836;28;20025;-77
2022/03/13 09:02:05;;;;;;;3.95;3.00;;;;;;;;;;5026296;28;20017;-76
2022/03/13 09:04:32;;;;;;;3.22;2.72;;;;;;;;;;5026310;28;20437;-76
2022/03/13 09:06:58;;;;;;;3.40;2.70;;;;;;;;;;5024429;28;20025;-77
2022/03/13 09:09:26;;;;;;;3.35;2.75;;;;;;;;;;5025488;28;20494;-76
2022/03/13 09:11:52;;;;;;;3.50;2.72;;;;;;;;;;5025622;28;20049;-75
2022/03/13 09:14:19;;;;;;;5.65;2.80;;;;;;;;;;5024775;28;20029;-77
2022/03/13 09:16:45;;;;;;;4.32;3.47;;;;;;;;;;5025558;28;20017;-76
2022/03/13 09:19:12;;;;;;;3.70;3.15;;;;;;;;;;5025607;28;20356;-77
2022/03/13 09:21:38;;;;;;;3.55;3.17;;;;;;;;;;5025770;28;20318;-76
2022/03/13 09:24:08;;;;;;;3.47;3.00;;;;;;;;;;5024752;28;20553;-77
2022/03/13 09:26:35;;;;;;;4.28;3.33;;;;;;;;;;5023782;28;20060;-76
2022/03/13 09:29:02;;;;;;;6.32;2.92;;;;;;;;;;5025733;28;20038;-77
2022/03/13 09:31:28;;;;;;;3.30;2.70;;;;;;;;;;5025580;28;20474;-76
2022/03/13 09:33:54;;;;;;;2.92;2.53;;;;;;;;;;5026134;28;20043;-77
2022/03/13 09:36:20;;;;;;;3.75;3.10;;;;;;;;;;5025744;28;20644;-76
2022/03/13 09:38:47;;;;;;;4.13;3.10;;;;;;;;;;5023867;28;20458;-77
2022/03/13 09:41:13;;;;;;;3.75;3.30;;;;;;;;;;5024313;28;20029;-76
2022/03/13 09:43:40;;;;;;;4.22;2.97;;;;;;;;;;5025270;28;20028;-75
2022/03/13 09:46:06;;;;;;;3.20;2.50;;;;;;;;;;5025344;28;20047;-77
2022/03/13 09:48:35;;;;;;;3.90;2.45;;;;;;;;;;5025202;28;20025;-76
2022/03/13 09:51:04;;;;;;;2.58;2.22;;;;;;;;;;5023528;28;20026;-75
2022/03/13 09:53:30;;;;;;;2.47;2.28;;;;;;;;;;5025000;28;20068;-75
2022/03/13 09:55:57;;;;;;;3.30;2.80;;;;;;;;;;5025155;28;20021;-77
2022/03/13 09:58:23;;;;;;;2.65;2.40;;;;;;;;;;5025119;28;20037;-76
2022/03/13 10:00:49;;;;;;;3.00;2.70;;;;;;;;;;5025186;28;20029;-76
2022/03/13 10:03:15;;;;;;;3.53;2.55;;;;;;;;;;5025134;28;20057;-76
2022/03/13 10:05:42;;;;;;;2.65;2.45;;;;;;;;;;5023240;28;20461;-76
2022/03/13 10:08:08;;;;;;;2.95;2.40;;;;;;;;;;5024890;28;20029;-78
2022/03/13 10:10:46;;;;;;;2.92;2.30;;;;;;;;;;5024604;28;20097;-77
2022/03/13 10:13:16;;;;;;;2.78;2.40;;;;;;;;;;5024908;28;20421;-76
2022/03/13 10:15:42;;;;;;;5.55;3.00;;;;;;;;;;5025053;28;20493;-75
2022/03/13 10:18:11;;;;;;;5.45;4.20;;;;;;;;;;5024633;28;20079;-76
2022/03/13 10:20:39;;;;;;;3.58;2.90;;;;;;;;;;5022998;28;20026;-78
2022/03/13 10:23:27;;;;;;;3.13;2.83;;;;;;;;;;5024985;28;20317;-75
2022/03/13 10:25:53;;;;;;;4.32;2.70;;;;;;;;;;5024306;28;20072;-75
2022/03/13 10:28:22;;;;;;;3.25;2.60;;;;;;;;;;5022916;28;20026;-75
2022/03/13 10:31:01;;;;;;;3.08;2.65;;;;;;;;;;5024267;28;20025;-75
2022/03/13 10:33:28;;;;;;;3.15;2.80;;;;;;;;;;5024596;28;20032;-76
2022/03/13 10:36:13;;;;;;;3.13;2.83;;;;;;;;;;5022628;28;20033;-76
2022/03/13 10:38:39;;;;;;;2.92;2.58;;;;;;;;;;5024134;28;20021;-77
2022/03/13 10:41:08;;;;;;;4.13;3.53;;;;;;;;;;5024424;28;20053;-75
2022/03/13 10:43:35;;;;;;;3.50;3.20;;;;;;;;;;5023544;28;20018;-76
2022/03/13 10:46:02;;;;;;;3.25;2.63;;;;;;;;;;5024256;28;20034;-76
2022/03/13 10:48:33;;;;;;;3.53;2.85;;;;;;;;;;5024310;28;20035;-77
2022/03/13 10:51:12;;;;;;;3.17;2.72;;;;;;;;;;5022920;28;20410;-75
2022/03/13 10:53:42;;;;;;;4.55;3.58;;;;;;;;;;5024341;28;20053;-77
2022/03/13 10:56:10;;;;;;;4.75;4.18;;;;;;;;;;5022596;28;20073;-77
2022/03/13 10:58:38;;;;;;;4.30;2.78;;;;;;;;;;5024656;28;20033;-76
2022/03/13 11:01:11;;;;;;;3.78;2.92;;;;;;;;;;5023969;28;20021;-76
2022/03/13 11:03:38;;;;;;;3.72;2.78;;;;;;;;;;5024285;28;20029;-76
2022/03/13 11:06:05;;;;;;;2.63;2.42;;;;;;;;;;5022903;28;20381;-76
2022/03/13 11:08:31;;;;;;;3.60;2.70;;;;;;;;;;5022811;28;20223;-76
2022/03/13 11:10:58;;;;;;;3.03;2.72;;;;;;;;;;5023760;28;20052;-75
2022/03/13 11:13:26;;;;;;;3.00;2.42;;;;;;;;;;5022676;28;20445;-75
2022/03/13 11:15:55;;;;;;;3.47;2.70;;;;;;;;;;5024253;28;20030;-75
2022/03/13 11:18:23;;;;;;;2.63;2.42;;;;;;;;;;5023097;28;20413;-76
2022/03/13 11:20:49;;;;;;;3.28;2.80;;;;;;;;;;5023741;28;20017;-75
2022/03/13 11:23:17;;;;;;;3.75;3.10;;;;;;;;;;5023936;28;20026;-75
2022/03/13 11:25:44;;;;;;;3.95;2.90;;;;;;;;;;5022579;28;20017;-75
2022/03/13 11:28:10;;;;;;;2.90;2.45;;;;;;;;;;5022782;28;20035;-75
2022/03/13 11:30:37;;;;;;;3.38;2.40;;;;;;;;;;5023719;28;20488;-75
2022/03/13 11:33:04;;;;;;;3.33;2.60;;;;;;;;;;5023984;28;20033;-75
2022/03/13 11:35:31;;;;;;;2.80;2.40;;;;;;;;;;5023391;28;20021;-76
2022/03/13 11:38:00;;;;;;;3.05;2.72;;;;;;;;;;5023842;28;20492;-75
2022/03/13 11:40:34;;;;;;;3.85;3.03;;;;;;;;;;5022414;28;20056;-76
2022/03/13 11:43:13;;;;;;;3.50;2.83;;;;;;;;;;5023793;28;20025;-75
2022/03/13 11:45:50;;;;;;;4.40;3.65;;;;;;;;;;5024236;28;20109;-75
2022/03/13 11:48:19;;;;;;;5.22;3.13;;;;;;;;;;5027902;28;20049;-75
2022/03/13 11:50:54;;;;;;;3.33;2.70;;;;;;;;;;5025826;28;20030;-75
2022/03/13 11:53:20;;;;;;;3.45;2.67;;;;;;;;;;5027586;28;20025;-76
2022/03/13 11:55:59;;;;;;;4.68;3.00;;;;;;;;;;5041903;28;20048;-76
2022/03/13 11:58:37;;;;;;;3.20;2.80;;;;;;;;;;5046782;28;20171;-76
2022/03/13 12:01:07;;;;;;;2.90;2.60;;;;;;;;;;5045484;28;20033;-78
2022/03/13 12:03:33;;;;;;;2.78;2.50;;;;;;;;;;5046687;28;20268;-75
2022/03/13 12:06:00;;;;;;;3.88;2.67;;;;;;;;;;5046900;28;20040;-77
2022/03/13 12:08:46;;;;;;;3.20;2.55;;;;;;;;;;5045371;28;20041;-77
2022/03/13 12:11:38;;;;;;;3.30;2.63;;;;;;;;;;5046955;28;20190;-77
2022/03/13 12:14:07;;;;;;;3.20;2.47;;;;;;;;;;5047268;28;20266;-76
2022/03/13 12:16:33;;;;;;;3.28;2.35;;;;;;;;;;5047640;28;20036;-77
2022/03/13 12:18:59;;;;;;;2.90;2.60;;;;;;;;;;5046781;28;20359;-76
2022/03/13 12:21:26;;;;;;;3.45;2.80;;;;;;;;;;5045345;28;20032;-76
2022/03/13 12:23:52;;;;;;;5.05;2.60;;;;;;;;;;5046648;28;20017;-77
2022/03/13 12:26:23;;;;;;;3.33;2.55;;;;;;;;;;5047102;28;20489;-75
2022/03/13 12:28:50;;;;;;;2.67;2.08;;;;;;;;;;5046329;28;20028;-76
2022/03/13 12:31:16;;;;;;;2.67;2.47;;;;;;;;;;5046551;28;20024;-77
2022/03/13 12:33:46;;;;;;;3.65;2.97;;;;;;;;;;5045711;28;20017;-77
2022/03/13 12:36:13;;;;;;;2.60;2.20;;;;;;;;;;5046852;28;20532;-77
2022/03/13 12:38:43;;;;;;;2.75;2.22;;;;;;;;;;5046224;28;20044;-75
2022/03/13 12:41:09;;;;;;;2.90;2.35;;;;;;;;;;5046430;28;20362;-77
2022/03/13 12:43:57;;;;;;;2.38;2.10;;;;;;;;;;5044996;28;20504;-77
2022/03/13 12:46:25;;;;;;;3.08;2.30;;;;;;;;;;5046255;28;20489;-77
2022/03/13 12:48:58;;;;;;;6.75;2.72;;;;;;;;;;5044868;28;20466;-75
2022/03/13 12:51:36;;;;;;;4.22;2.90;;;;;;;;;;5046683;28;20029;-77
2022/03/13 12:54:10;;;;;;;3.90;2.30;;;;;;;;;;5046316;28;20223;-76
2022/03/13 12:56:44;;;;;;;4.25;2.22;;;;;;;;;;5044208;28;20017;-77
2022/03/13 12:59:22;;;;;;;2.97;2.10;;;;;;;;;;5044374;28;20394;-77
2022/03/13 13:02:01;;;;;;;2.58;2.30;;;;;;;;;;5045924;28;20051;-75
2022/03/13 13:04:27;;;;;;;2.50;2.20;;;;;;;;;;5045356;28;20067;-77
2022/03/13 13:06:53;;;;;;;4.05;2.67;;;;;;;;;;5046158;28;20021;-78
2022/03/13 13:09:29;;;;;;;2.80;2.22;;;;;;;;;;5044699;28;20048;-77
2022/03/13 13:11:56;;;;;;;3.85;2.63;;;;;;;;;;5045926;28;20045;-75
2022/03/13 13:14:26;;;;;;;2.72;2.40;;;;;;;;;;5045889;28;20104;-77
2022/03/13 13:16:52;;;;;;;2.92;2.17;;;;;;;;;;5045888;28;20116;-75
2022/03/13 13:19:19;;;;;;;3.92;3.30;;;;;;;;;;5044384;28;20469;-77
2022/03/13 13:21:56;;;;;;;4.70;3.42;;;;;;;;;;5043895;28;20033;-77
2022/03/13 13:24:23;;;;;;;3.60;2.70;;;;;;;;;;5046036;28;20025;-77
2022/03/13 13:26:49;;;;;;;3.40;2.85;;;;;;;;;;5045532;28;20025;-76
2022/03/13 13:29:30;;;;;;;4.72;3.00;;;;;;;;;;5045258;28;20663;-76
2022/03/13 13:32:16;;;;;;;3.45;2.72;;;;;;;;;;5043809;28;20029;-76
2022/03/13 13:34:44;;;;;;;3.10;2.75;;;;;;;;;;5045738;28;20032;-77
2022/03/13 13:37:10;;;;;;;3.25;2.65;;;;;;;;;;5045436;28;20135;-77
2022/03/13 13:39:36;;;;;;;6.00;4.47;;;;;;;;;;5045104;28;20024;-77
2022/03/13 13:42:03;;;;;;;4.47;3.67;;;;;;;;;;5044059;28;20553;-76
2022/03/13 13:44:32;;;;;;;3.20;2.70;;;;;;;;;;5045101;28;20032;-78
2022/03/13 13:47:05;;;;;;;2.97;2.67;;;;;;;;;;5045297;28;20028;-76
2022/03/13 13:49:33;;;;;;;6.03;4.20;;;;;;;;;;5042495;28;20041;-76
2022/03/13 13:52:12;;;;;;;4.38;3.28;;;;;;;;;;5044682;28;20027;-78
2022/03/13 13:54:38;;;;;;;4.80;3.50;;;;;;;;;;5044927;28;20409;-78
2022/03/13 13:57:04;;;;;;;3.95;3.55;;;;;;;;;;5045176;28;20595;-77
2022/03/13 13:59:32;;;;;;;4.35;3.83;;;;;;;;;;5042330;28;20028;-77
2022/03/13 14:02:05;;;;;;;4.35;3.35;;;;;;;;;;5044915;28;20029;-76
2022/03/13 14:04:32;;;;;;;3.58;3.08;;;;;;;;;;5044629;28;20520;-76
2022/03/13 14:07:01;;;;;;;4.10;3.40;;;;;;;;;;5043404;28;20427;-77
2022/03/13 14:09:28;;;;;;;4.88;3.90;;;;;;;;;;5044039;28;20477;-76
2022/03/13 14:11:55;;;;;;;9.25;7.35;;;;;;;;;;5044400;28;20245;-75
2022/03/13 14:14:21;;;;;;;6.57;5.82;;;;;;;;;;5043317;28;20017;-76
2022/03/13 14:16:47;;;;;;;6.13;4.88;;;;;;;;;;5044556;28;20025;-76
2022/03/13 14:19:14;;;;;;;7.78;6.72;;;;;;;;;;5044651;28;20121;-76
2022/03/13 14:21:40;;;;;;;12.10;9.38;;;;;;;;;;5044580;28;20025;-77
2022/03/13 14:24:07;;;;;;;8.35;7.05;;;;;;;;;;5044337;28;20021;-76
2022/03/13 14:26:33;;;;;;;8.30;6.38;;;;;;;;;;5043083;28;20017;-76
2022/03/13 14:29:00;;;;;;;6.07;4.95;;;;;;;;;;5044848;28;20114;-76
2022/03/13 14:31:26;;;;;;;4.63;3.88;;;;;;;;;;5044308;28;20039;-77
2022/03/13 14:33:53;;;;;;;4.53;3.58;;;;;;;;;;5041906;28;20496;-76
2022/03/13 14:36:19;;;;;;;4.95;3.58;;;;;;;;;;5042871;28;20035;-75
2022/03/13 14:38:49;;;;;;;4.25;2.97;;;;;;;;;;5043924;28;20037;-76
2022/03/13 14:41:16;;;;;;;3.67;3.28;;;;;;;;;;5044518;28;20024;-75
2022/03/13 14:43:43;;;;;;;5.25;4.22;;;;;;;;;;5043019;28;20032;-77
2022/03/13 14:46:09;;;;;;;6.68;5.97;;;;;;;;;;5042742;28;20478;-75